createdAt,value
2023-05-24T00:00:56.269Z,96.58
2023-05-24T00:02:30.038Z,98.52
2023-05-24T00:04:03.976Z,98.58
2023-05-24T00:05:38.206Z,98.58
2023-05-24T00:07:12.292Z,99.08
2023-05-24T00:08:46.465Z,99.63
2023-05-24T00:10:19.716Z,98.73
2023-05-24T00:11:53.785Z,100.00
2023-05-24T00:13:27.717Z,100.00
2023-05-24T00:15:01.256Z,100.00
2023-05-24T00:16:38.705Z,100.00
2023-05-24T00:18:12.263Z,100.00
2023-05-24T00:19:46.135Z,100.00
2023-05-24T00:21:19.702Z,100.00
2023-05-24T00:22:52.914Z,100.00
2023-05-24T00:24:26.060Z,100.00
2023-05-24T00:25:59.221Z,100.00
2023-05-24T00:27:33.395Z,100.00
2023-05-24T00:29:07.114Z,100.00
2023-05-24T00:30:41.033Z,100.00
2023-05-24T00:32:15.089Z,100.00
2023-05-24T00:33:49.068Z,100.00
2023-05-24T00:35:24.914Z,100.00
2023-05-24T00:37:01.063Z,100.00
2023-05-24T00:38:34.550Z,100.00
2023-05-24T00:40:08.885Z,100.00
2023-05-24T00:41:42.385Z,100.00
2023-05-24T00:43:16.492Z,100.00
2023-05-24T00:44:50.142Z,100.00
2023-05-24T00:46:29.613Z,100.00
2023-05-24T00:48:03.374Z,100.00
2023-05-24T00:49:36.806Z,100.00
2023-05-24T00:51:12.280Z,100.00
2023-05-24T00:52:47.653Z,96.99
2023-05-24T00:54:21.500Z,97.14
2023-05-24T00:55:55.888Z,94.00
2023-05-24T00:57:29.537Z,90.00
2023-05-24T00:59:03.251Z,87.99
2023-05-24T01:00:38.082Z,86.64
2023-05-24T01:02:11.818Z,83.73
2023-05-24T01:03:47.378Z,81.62
2023-05-24T01:05:22.068Z,78.21
2023-05-24T01:07:22.355Z,74.92
2023-05-24T01:09:10.867Z,73.87
2023-05-24T01:10:59.152Z,71.59
2023-05-24T01:13:03.497Z,66.95
2023-05-24T01:14:37.305Z,66.66
2023-05-24T01:16:18.415Z,63.40
2023-05-24T01:18:22.373Z,61.17
2023-05-24T01:20:08.498Z,58.93
2023-05-24T01:21:51.227Z,58.04
2023-05-24T01:24:03.525Z,56.00
2023-05-24T01:25:54.484Z,55.75
2023-05-24T01:27:29.265Z,55.30
2023-05-24T01:29:05.435Z,54.45
2023-05-24T01:30:42.212Z,54.16
2023-05-24T01:32:16.324Z,52.46
2023-05-24T01:33:50.028Z,50.81
2023-05-24T01:35:26.233Z,49.76
2023-05-24T01:36:59.689Z,48.90
2023-05-24T01:38:33.008Z,48.19
2023-05-24T01:40:07.247Z,47.53
2023-05-24T01:42:06.766Z,47.75
2023-05-24T01:43:53.009Z,44.64
2023-05-24T01:45:57.256Z,44.77
2023-05-24T01:48:07.787Z,44.29
2023-05-24T01:49:52.283Z,42.88
2023-05-24T01:51:30.975Z,42.65
2023-05-24T01:53:10.225Z,41.72
2023-05-24T01:54:48.274Z,41.26
2023-05-24T01:56:23.320Z,40.91
2023-05-24T01:58:03.841Z,41.22
2023-05-24T01:59:38.653Z,40.66
2023-05-24T02:01:14.223Z,40.21
2023-05-24T02:02:48.552Z,39.96
2023-05-24T02:04:24.993Z,39.61
2023-05-24T02:05:58.745Z,40.00
2023-05-24T02:07:32.118Z,40.75
2023-05-24T02:09:05.663Z,41.21
2023-05-24T02:10:40.084Z,41.05
2023-05-24T02:12:14.182Z,39.87
2023-05-24T02:13:47.621Z,41.11
2023-05-24T02:15:21.266Z,40.10
2023-05-24T02:16:59.457Z,40.52
2023-05-24T02:18:35.151Z,40.79
2023-05-24T02:20:09.784Z,41.66
2023-05-24T02:21:43.719Z,40.96
2023-05-24T02:23:17.853Z,40.26
2023-05-24T02:24:51.279Z,39.52
2023-05-24T02:26:25.201Z,39.63
2023-05-24T02:27:59.876Z,37.62
2023-05-24T02:29:33.250Z,37.42
2023-05-24T02:31:06.888Z,36.59
2023-05-24T02:32:41.275Z,37.04
2023-05-24T02:34:15.496Z,36.43
2023-05-24T02:35:48.720Z,34.76
2023-05-24T02:37:21.901Z,35.26
2023-05-24T02:38:55.652Z,35.40
2023-05-24T02:40:29.376Z,35.26
2023-05-24T02:42:05.145Z,33.47
2023-05-24T02:43:38.713Z,33.34
2023-05-24T02:45:12.644Z,32.80
2023-05-24T02:46:46.333Z,31.89
2023-05-24T02:48:19.874Z,31.76
2023-05-24T02:49:54.537Z,31.48
2023-05-24T02:51:27.869Z,31.85
2023-05-24T02:53:01.481Z,31.01
2023-05-24T02:54:35.277Z,30.96
2023-05-24T02:56:10.321Z,30.86
2023-05-24T02:57:44.739Z,30.66
2023-05-24T02:59:18.735Z,31.01
2023-05-24T03:00:52.157Z,30.15
2023-05-24T03:02:29.804Z,30.50
2023-05-24T03:04:03.896Z,31.01
2023-05-24T03:05:38.046Z,31.44
2023-05-24T03:07:11.206Z,30.68
2023-05-24T03:08:45.026Z,30.48
2023-05-24T03:10:19.697Z,29.55
2023-05-24T03:11:54.973Z,30.22
2023-05-24T03:13:28.869Z,29.43
2023-05-24T03:15:03.284Z,29.99
2023-05-24T03:16:38.190Z,29.16
2023-05-24T03:18:11.742Z,29.68
2023-05-24T03:19:46.997Z,30.58
2023-05-24T03:21:21.218Z,30.30
2023-05-24T03:22:54.680Z,29.64
2023-05-24T03:24:28.545Z,29.64
2023-05-24T03:26:01.777Z,29.01
2023-05-24T03:27:36.647Z,29.43
2023-05-24T03:29:10.699Z,29.55
2023-05-24T03:30:47.746Z,28.98
2023-05-24T03:32:21.544Z,28.65
2023-05-24T03:33:55.681Z,29.25
2023-05-24T03:35:29.406Z,29.52
2023-05-24T03:37:03.117Z,29.06
2023-05-24T03:38:36.159Z,28.84
2023-05-24T03:40:09.707Z,29.11
2023-05-24T03:42:00.546Z,29.06
2023-05-24T03:43:34.594Z,28.91
2023-05-24T03:45:11.014Z,28.30
2023-05-24T03:46:44.773Z,28.34
2023-05-24T03:48:21.328Z,28.02
2023-05-24T03:49:56.530Z,28.20
2023-05-24T03:51:30.169Z,27.78
2023-05-24T03:53:03.452Z,27.99
2023-05-24T03:54:37.024Z,27.83
2023-05-24T03:56:11.518Z,27.84
2023-05-24T03:57:44.942Z,27.27
2023-05-24T03:59:18.627Z,26.91
2023-05-24T04:00:52.329Z,26.82
2023-05-24T04:02:26.106Z,26.48
2023-05-24T04:03:59.904Z,26.94
2023-05-24T04:05:34.394Z,27.42
2023-05-24T04:07:08.300Z,26.76
2023-05-24T04:08:42.070Z,26.34
2023-05-24T04:10:16.139Z,26.64
2023-05-24T04:11:49.674Z,26.43
2023-05-24T04:13:23.001Z,26.24
2023-05-24T04:14:56.552Z,26.62
2023-05-24T04:16:29.923Z,26.57
2023-05-24T04:18:03.655Z,26.37
2023-05-24T04:19:37.052Z,25.86
2023-05-24T04:21:12.135Z,26.28
2023-05-24T04:22:45.726Z,26.37
2023-05-24T04:24:19.109Z,26.72
2023-05-24T04:25:52.443Z,26.64
2023-05-24T04:27:26.759Z,26.67
2023-05-24T04:29:01.346Z,25.68
2023-05-24T04:30:37.019Z,26.07
2023-05-24T04:32:10.645Z,25.80
2023-05-24T04:33:44.224Z,25.31
2023-05-24T04:35:17.727Z,25.96
2023-05-24T04:36:52.785Z,26.52
2023-05-24T04:38:26.237Z,24.96
2023-05-24T04:40:00.039Z,25.04
2023-05-24T04:41:35.553Z,25.53
2023-05-24T04:43:11.106Z,25.02
2023-05-24T04:44:45.252Z,25.19
2023-05-24T04:46:18.627Z,25.14
2023-05-24T04:47:52.085Z,25.74
2023-05-24T04:49:25.808Z,25.27
2023-05-24T04:50:59.727Z,24.69
2023-05-24T04:52:33.970Z,24.63
2023-05-24T04:54:09.473Z,24.50
2023-05-24T04:55:43.474Z,24.39
2023-05-24T04:57:17.313Z,24.83
2023-05-24T04:58:51.099Z,25.68
2023-05-24T05:00:24.609Z,25.67
2023-05-24T05:01:57.990Z,25.49
2023-05-24T05:03:31.578Z,25.63
2023-05-24T05:05:05.033Z,25.30
2023-05-24T05:06:41.017Z,24.36
2023-05-24T05:08:15.742Z,25.25
2023-05-24T05:09:48.999Z,24.77
2023-05-24T05:11:22.817Z,24.72
2023-05-24T05:12:56.228Z,25.08
2023-05-24T05:14:30.052Z,25.51
2023-05-24T05:16:06.345Z,25.26
2023-05-24T05:17:39.727Z,25.14
2023-05-24T05:19:12.986Z,25.33
2023-05-24T05:20:47.043Z,25.29
2023-05-24T05:22:20.558Z,25.22
2023-05-24T05:23:55.394Z,24.94
2023-05-24T05:25:29.080Z,25.29
2023-05-24T05:27:02.358Z,25.02
2023-05-24T05:28:36.113Z,24.62
2023-05-24T05:30:09.645Z,24.43
2023-05-24T05:31:43.068Z,25.39
2023-05-24T05:33:16.701Z,25.21
2023-05-24T05:34:50.068Z,24.23
2023-05-24T05:36:23.575Z,23.34
2023-05-24T05:37:57.048Z,23.44
2023-05-24T05:39:32.242Z,23.52
2023-05-24T05:41:06.002Z,23.66
2023-05-24T05:42:39.324Z,23.92
2023-05-24T05:44:13.363Z,24.59
2023-05-24T05:45:47.048Z,23.92
2023-05-24T05:47:20.273Z,24.62
2023-05-24T05:48:54.017Z,23.59
2023-05-24T05:50:27.443Z,23.66
2023-05-24T05:52:00.930Z,23.32
2023-05-24T05:53:35.371Z,23.72
2023-05-24T05:55:09.687Z,23.58
2023-05-24T05:56:46.254Z,23.47
2023-05-24T05:58:19.796Z,23.60
2023-05-24T05:59:53.256Z,23.69
2023-05-24T06:01:26.489Z,24.34
2023-05-24T06:02:59.698Z,23.75
2023-05-24T06:04:33.192Z,23.18
2023-05-24T06:06:06.595Z,23.72
2023-05-24T06:07:40.288Z,24.33
2023-05-24T06:09:13.429Z,23.24
2023-05-24T06:10:46.572Z,23.06
2023-05-24T06:12:19.525Z,23.00
2023-05-24T06:13:53.201Z,23.63
2023-05-24T06:15:26.765Z,23.40
2023-05-24T06:17:00.461Z,23.28
2023-05-24T06:18:34.869Z,23.76
2023-05-24T06:20:16.158Z,22.98
2023-05-24T06:21:51.063Z,23.62
2023-05-24T06:23:24.502Z,23.54
2023-05-24T06:24:57.779Z,24.28
2023-05-24T06:26:31.594Z,23.59
2023-05-24T06:28:05.150Z,24.26
2023-05-24T06:29:38.841Z,23.63
2023-05-24T06:31:12.023Z,23.33
2023-05-24T06:32:45.494Z,23.54
2023-05-24T06:34:21.785Z,23.72
2023-05-24T06:35:55.475Z,24.29
2023-05-24T06:37:31.617Z,24.36
2023-05-24T06:39:05.581Z,24.47
2023-05-24T06:40:38.689Z,23.93
2023-05-24T06:42:11.801Z,23.96
2023-05-24T06:43:44.978Z,24.24
2023-05-24T06:45:18.348Z,23.54
2023-05-24T06:46:51.809Z,24.30
2023-05-24T06:48:25.479Z,24.54
2023-05-24T06:49:58.489Z,23.94
2023-05-24T06:51:34.019Z,23.91
2023-05-24T06:53:07.387Z,23.56
2023-05-24T06:54:40.771Z,24.68
2023-05-24T06:56:14.055Z,24.26
2023-05-24T06:57:47.287Z,24.09
2023-05-24T06:59:20.830Z,24.31
2023-05-24T07:00:54.872Z,24.46
2023-05-24T07:02:29.335Z,24.17
2023-05-24T07:04:02.578Z,24.45
2023-05-24T07:05:35.941Z,24.26
2023-05-24T07:07:13.028Z,24.27
2023-05-24T07:08:46.998Z,24.43
2023-05-24T07:10:20.340Z,23.92
2023-05-24T07:11:53.874Z,23.89
2023-05-24T07:13:27.058Z,23.59
2023-05-24T07:15:04.662Z,24.22
2023-05-24T07:16:39.439Z,24.66
2023-05-24T07:18:14.104Z,24.79
2023-05-24T07:19:47.336Z,24.42
2023-05-24T07:21:21.101Z,24.35
2023-05-24T07:22:55.010Z,24.84
2023-05-24T07:24:28.994Z,24.68
2023-05-24T07:26:02.275Z,24.57
2023-05-24T07:27:37.362Z,23.99
2023-05-24T07:29:10.862Z,23.90
2023-05-24T07:30:43.851Z,24.51
2023-05-24T07:32:17.208Z,23.66
2023-05-24T07:33:50.816Z,24.07
2023-05-24T07:35:24.669Z,24.30
2023-05-24T07:37:01.057Z,23.70
2023-05-24T07:38:35.385Z,23.81
2023-05-24T07:40:12.154Z,23.87
2023-05-24T07:41:46.117Z,23.42
2023-05-24T07:43:20.256Z,23.88
2023-05-24T07:44:53.437Z,23.15
2023-05-24T07:46:26.751Z,24.11
2023-05-24T07:48:03.527Z,23.15
2023-05-24T07:49:36.792Z,23.08
2023-05-24T07:51:09.787Z,22.01
2023-05-24T07:52:43.459Z,22.54
2023-05-24T07:54:16.783Z,21.92
2023-05-24T07:55:49.766Z,22.19
2023-05-24T07:57:23.152Z,21.94
2023-05-24T07:59:03.833Z,22.54
2023-05-24T08:00:37.397Z,23.24
2023-05-24T08:02:11.945Z,23.74
2023-05-24T08:03:46.334Z,23.56
2023-05-24T08:05:19.628Z,23.51
2023-05-24T08:06:53.597Z,23.75
2023-05-24T08:08:27.214Z,23.47
2023-05-24T08:10:00.721Z,23.24
2023-05-24T08:11:34.015Z,23.00
2023-05-24T08:13:07.576Z,23.09
2023-05-24T08:14:41.020Z,23.31
2023-05-24T08:16:14.658Z,23.45
2023-05-24T08:17:48.903Z,23.44
2023-05-24T08:19:22.301Z,23.75
2023-05-24T08:20:55.902Z,24.04
2023-05-24T08:22:29.052Z,23.83
2023-05-24T08:24:02.376Z,23.33
2023-05-24T08:25:35.441Z,23.90
2023-05-24T08:27:09.090Z,24.01
2023-05-24T08:28:42.070Z,23.33
2023-05-24T08:30:15.380Z,23.73
2023-05-24T08:31:48.921Z,24.19
2023-05-24T08:33:25.219Z,22.47
2023-05-24T08:35:10.647Z,23.17
2023-05-24T08:36:51.479Z,23.12
2023-05-24T08:38:24.630Z,23.00
2023-05-24T08:39:58.245Z,23.66
2023-05-24T08:41:37.791Z,23.43
2023-05-24T08:43:12.474Z,23.18
2023-05-24T08:44:53.860Z,23.50
2023-05-24T08:46:28.774Z,23.42
2023-05-24T08:48:03.086Z,22.91
2023-05-24T08:49:38.712Z,23.27
2023-05-24T08:51:11.893Z,23.21
2023-05-24T08:52:46.902Z,23.29
2023-05-24T08:54:21.704Z,22.91
2023-05-24T08:55:56.756Z,23.38
2023-05-24T08:57:32.116Z,22.69
2023-05-24T08:59:05.509Z,22.77
2023-05-24T09:00:38.717Z,23.08
2023-05-24T09:02:16.236Z,22.88
2023-05-24T09:03:51.419Z,23.54
2023-05-24T09:05:26.828Z,23.35
2023-05-24T09:07:00.609Z,23.28
2023-05-24T09:08:35.828Z,23.01
2023-05-24T09:10:10.576Z,23.73
2023-05-24T09:11:45.882Z,23.54
2023-05-24T09:13:19.885Z,22.43
2023-05-24T09:14:53.527Z,22.70
2023-05-24T09:16:26.658Z,22.21
2023-05-24T09:17:59.857Z,22.72
2023-05-24T09:19:33.189Z,22.41
2023-05-24T09:21:07.983Z,23.01
2023-05-24T09:22:44.358Z,22.82
2023-05-24T09:24:17.552Z,21.77
2023-05-24T09:25:51.087Z,22.29
2023-05-24T09:27:24.531Z,23.16
2023-05-24T09:28:58.105Z,23.50
2023-05-24T09:30:31.517Z,22.91
2023-05-24T09:32:08.950Z,22.31
2023-05-24T09:33:42.306Z,22.58
2023-05-24T09:35:15.521Z,22.34
2023-05-24T09:36:49.005Z,21.61
2023-05-24T09:38:22.240Z,21.82
2023-05-24T09:39:56.239Z,22.48
2023-05-24T09:41:29.620Z,22.09
2023-05-24T09:43:10.460Z,22.82
2023-05-24T09:44:43.982Z,21.97
2023-05-24T09:46:19.316Z,21.55
2023-05-24T09:47:53.568Z,21.70
2023-05-24T09:49:26.920Z,22.09
2023-05-24T09:51:10.252Z,21.73
2023-05-24T09:52:43.998Z,22.21
2023-05-24T09:54:17.795Z,21.39
2023-05-24T09:55:51.612Z,21.83
2023-05-24T09:57:26.255Z,21.61
2023-05-24T09:58:59.965Z,22.05
2023-05-24T10:00:41.903Z,22.19
2023-05-24T10:02:18.693Z,22.08
2023-05-24T10:03:59.411Z,22.52
2023-05-24T10:05:32.938Z,22.69
2023-05-24T10:07:08.020Z,22.41
2023-05-24T10:08:41.026Z,22.82
2023-05-24T10:10:14.209Z,22.67
2023-05-24T10:11:47.827Z,22.22
2023-05-24T10:13:23.456Z,22.53
2023-05-24T10:14:57.932Z,22.28
2023-05-24T10:16:31.018Z,22.18
2023-05-24T10:18:10.676Z,22.41
2023-05-24T10:19:45.300Z,22.23
2023-05-24T10:21:22.406Z,22.26
2023-05-24T10:23:04.776Z,22.52
2023-05-24T10:24:41.673Z,21.82
2023-05-24T10:26:15.237Z,21.52
2023-05-24T10:27:51.276Z,21.37
2023-05-24T10:30:02.426Z,21.75
2023-05-24T10:31:41.726Z,22.06
2023-05-24T10:33:15.735Z,22.06
2023-05-24T10:34:51.133Z,22.15
2023-05-24T10:36:26.652Z,21.92
2023-05-24T10:38:00.163Z,22.26
2023-05-24T10:39:35.235Z,22.27
2023-05-24T10:41:09.236Z,22.52
2023-05-24T10:42:45.297Z,22.20
2023-05-24T10:44:20.726Z,22.03
2023-05-24T10:45:53.946Z,22.19
2023-05-24T10:47:29.058Z,21.51
2023-05-24T10:49:03.548Z,21.61
2023-05-24T10:50:36.697Z,22.15
2023-05-24T10:52:10.979Z,21.53
2023-05-24T10:53:44.037Z,21.68
2023-05-24T10:55:20.122Z,22.18
2023-05-24T10:56:53.841Z,22.00
2023-05-24T10:58:49.029Z,22.05
2023-05-24T11:02:14.913Z,22.38
2023-05-24T11:03:49.302Z,21.91
2023-05-24T11:05:24.672Z,22.00
2023-05-24T11:07:03.516Z,21.90
2023-05-24T11:08:43.931Z,21.82
2023-05-24T11:10:17.714Z,22.32
2023-05-24T11:11:55.362Z,22.09
2023-05-24T11:13:28.457Z,21.54
2023-05-24T11:15:03.517Z,21.82
2023-05-24T11:16:40.774Z,22.05
2023-05-24T11:18:15.065Z,21.72
2023-05-24T11:19:53.738Z,22.47
2023-05-24T11:21:28.262Z,22.25
2023-05-24T11:23:12.845Z,21.96
2023-05-24T11:24:46.270Z,22.27
2023-05-24T11:26:20.213Z,22.01
2023-05-24T11:27:54.237Z,21.90
2023-05-24T11:29:27.583Z,22.12
2023-05-24T11:31:10.193Z,22.25
2023-05-24T11:32:48.958Z,22.04
2023-05-24T11:34:22.471Z,21.37
2023-05-24T11:35:56.800Z,22.05
2023-05-24T11:37:42.682Z,22.20
2023-05-24T11:39:19.576Z,21.76
2023-05-24T11:40:53.648Z,22.26
2023-05-24T11:42:29.663Z,22.42
2023-05-24T11:44:03.196Z,22.42
2023-05-24T11:45:36.818Z,22.23
2023-05-24T11:47:10.137Z,22.09
2023-05-24T11:48:43.480Z,21.86
2023-05-24T11:50:25.347Z,21.69
2023-05-24T11:52:01.573Z,22.25
2023-05-24T11:53:35.071Z,22.09
2023-05-24T11:55:08.765Z,22.38
2023-05-24T11:56:43.060Z,22.61
2023-05-24T11:58:24.208Z,22.79
2023-05-24T11:59:58.846Z,22.96
2023-05-24T12:01:32.400Z,23.03
2023-05-24T12:03:08.207Z,23.00
2023-05-24T12:04:41.644Z,23.12
2023-05-24T12:06:20.447Z,22.97
2023-05-24T12:08:10.459Z,23.34
2023-05-24T12:09:48.808Z,22.88
2023-05-24T12:11:22.799Z,22.62
2023-05-24T12:12:57.060Z,22.80
2023-05-24T12:14:31.597Z,22.90
2023-05-24T12:16:05.106Z,23.30
2023-05-24T12:17:38.525Z,22.54
2023-05-24T12:19:31.694Z,22.53
2023-05-24T12:21:10.839Z,22.60
2023-05-24T12:22:53.005Z,22.73
2023-05-24T12:24:27.056Z,22.42
2023-05-24T12:26:01.226Z,22.60
2023-05-24T12:27:36.069Z,22.50
2023-05-24T12:29:11.975Z,22.71
2023-05-24T12:30:45.745Z,22.59
2023-05-24T12:32:19.317Z,22.58
2023-05-24T12:33:54.329Z,23.18
2023-05-24T12:35:27.814Z,23.03
2023-05-24T12:37:01.123Z,22.88
2023-05-24T12:38:34.329Z,22.67
2023-05-24T12:40:21.924Z,22.56
2023-05-24T12:41:56.401Z,23.22
2023-05-24T12:43:29.912Z,23.27
2023-05-24T12:45:03.296Z,23.51
2023-05-24T12:46:39.056Z,22.79
2023-05-24T12:48:12.712Z,22.72
2023-05-24T12:49:46.201Z,22.91
2023-05-24T12:51:19.833Z,22.93
2023-05-24T12:52:54.665Z,22.83
2023-05-24T12:54:29.146Z,22.82
2023-05-24T12:56:02.508Z,22.89
2023-05-24T12:57:35.772Z,23.58
2023-05-24T12:59:09.409Z,23.24
2023-05-24T13:00:45.149Z,23.10
2023-05-24T13:02:18.773Z,22.79
2023-05-24T13:03:52.547Z,23.54
2023-05-24T13:05:28.953Z,23.03
2023-05-24T13:07:03.590Z,23.17
2023-05-24T13:08:39.296Z,23.04
2023-05-24T13:10:14.481Z,23.72
2023-05-24T13:11:48.258Z,23.96
2023-05-24T13:13:21.793Z,23.42
2023-05-24T13:14:55.442Z,23.65
2023-05-24T13:16:28.942Z,24.07
2023-05-24T13:18:02.327Z,23.54
2023-05-24T13:19:35.662Z,23.73
2023-05-24T13:21:11.446Z,23.80
2023-05-24T13:22:46.039Z,23.38
2023-05-24T13:24:20.455Z,23.71
2023-05-24T13:25:57.646Z,23.58
2023-05-24T14:56:32.607Z,24.44
2023-05-24T14:58:09.494Z,24.25
2023-05-24T14:59:42.502Z,24.69
2023-05-24T15:01:15.553Z,24.78
2023-05-24T15:02:48.998Z,24.84
2023-05-24T15:04:22.901Z,25.17
2023-05-24T15:05:56.142Z,24.93
2023-05-24T15:07:29.132Z,24.91
2023-05-24T15:09:03.093Z,25.30
2023-05-24T15:10:36.466Z,25.10
2023-05-24T15:12:09.913Z,25.37
2023-05-24T15:13:42.869Z,25.47
2023-05-24T15:15:16.309Z,25.50
2023-05-24T15:16:49.959Z,25.71
2023-05-24T15:18:25.824Z,25.61
2023-05-24T15:20:00.152Z,25.89
2023-05-24T15:21:33.370Z,26.03
2023-05-24T15:23:06.769Z,26.15
2023-05-24T15:24:39.752Z,26.16
2023-05-24T15:26:13.013Z,26.40
2023-05-24T15:27:46.644Z,26.39
2023-05-24T15:29:20.462Z,26.58
2023-05-24T15:30:53.643Z,27.00
2023-05-24T15:32:27.007Z,26.91
2023-05-24T15:34:00.178Z,27.11
2023-05-24T15:35:33.188Z,27.44
2023-05-24T15:37:06.335Z,27.42
2023-05-24T15:38:39.561Z,27.41
2023-05-24T15:40:13.840Z,27.86
2023-05-24T15:41:46.710Z,28.13
2023-05-24T15:43:19.846Z,28.12
2023-05-24T15:44:52.841Z,28.20
2023-05-24T15:46:26.105Z,27.93
2023-05-24T15:47:59.537Z,27.59
2023-05-24T15:49:32.597Z,27.39
2023-05-24T15:52:43.932Z,27.37
2023-05-24T15:54:17.005Z,27.37
2023-05-24T15:55:49.987Z,27.76
2023-05-24T15:57:23.077Z,27.59
2023-05-24T15:58:56.477Z,27.80
2023-05-24T16:00:29.606Z,27.82
2023-05-24T16:02:02.610Z,28.04
2023-05-24T16:03:38.289Z,28.23
2023-05-24T16:05:11.776Z,28.14
2023-05-24T16:06:44.883Z,28.31
2023-05-24T16:08:18.218Z,28.37
2023-05-24T16:09:51.252Z,28.42
2023-05-24T16:11:24.515Z,28.53
2023-05-24T16:12:58.860Z,28.66
2023-05-24T16:14:31.926Z,28.83
2023-05-24T16:16:05.248Z,28.89
2023-05-24T16:17:38.774Z,28.89
2023-05-24T16:19:11.904Z,28.90
2023-05-24T16:20:46.464Z,28.98
2023-05-24T16:22:19.843Z,29.27
2023-05-24T16:23:53.054Z,29.10
2023-05-24T16:25:26.161Z,29.48
2023-05-24T16:26:59.099Z,29.28
2023-05-24T16:28:32.412Z,29.50
2023-05-24T16:30:06.692Z,29.86
2023-05-24T16:31:40.369Z,29.57
2023-05-24T16:33:14.119Z,29.91
2023-05-24T16:34:56.746Z,29.97
2023-05-24T16:36:32.542Z,29.94
2023-05-24T16:38:06.654Z,30.13
2023-05-24T16:39:40.641Z,30.08
2023-05-24T16:41:14.664Z,30.24
2023-05-24T16:42:53.363Z,30.42
2023-05-24T16:44:27.566Z,30.58
2023-05-24T16:46:02.363Z,30.63
2023-05-24T16:47:36.363Z,30.50
2023-05-24T16:49:10.178Z,30.86
2023-05-24T16:50:43.911Z,30.65
2023-05-24T16:52:17.625Z,30.69
2023-05-24T16:53:51.518Z,30.94
2023-05-24T16:55:24.817Z,31.05
2023-05-24T16:56:58.537Z,31.04
2023-05-24T16:58:32.445Z,31.07
2023-05-24T17:00:06.862Z,30.92
2023-05-24T17:01:40.820Z,31.02
2023-05-24T17:03:14.173Z,31.13
2023-05-24T17:04:47.780Z,31.25
2023-05-24T17:06:21.235Z,31.22
2023-05-24T17:07:55.734Z,31.22
2023-05-24T17:09:29.610Z,31.43
2023-05-24T17:11:07.279Z,31.48
2023-05-24T17:12:40.911Z,31.49
2023-05-24T17:14:14.413Z,31.43
2023-05-24T17:15:47.999Z,31.52
2023-05-24T17:17:21.216Z,31.61
2023-05-24T17:18:56.026Z,31.82
2023-05-24T17:20:29.899Z,31.67
2023-05-24T17:22:06.076Z,31.77
2023-05-24T17:23:40.139Z,31.81
2023-05-24T17:25:13.595Z,31.67
2023-05-24T17:26:47.312Z,31.85
2023-05-24T17:28:21.234Z,31.70
2023-05-24T17:29:54.512Z,31.84
2023-05-24T17:31:28.065Z,31.67
2023-05-24T17:33:01.959Z,31.92
2023-05-24T17:34:35.451Z,32.16
2023-05-24T17:36:10.097Z,32.39
2023-05-24T17:37:43.640Z,32.21
2023-05-24T17:39:20.458Z,32.45
2023-05-24T17:40:56.379Z,32.57
2023-05-24T17:42:29.616Z,32.42
2023-05-24T17:44:03.455Z,32.79
2023-05-24T17:45:37.835Z,32.78
2023-05-24T17:47:11.230Z,32.60
2023-05-24T17:48:44.569Z,32.68
2023-05-24T17:50:18.043Z,32.59
2023-05-24T17:51:51.571Z,32.49
2023-05-24T17:53:31.558Z,32.92
2023-05-24T17:55:06.629Z,32.49
2023-05-24T17:56:40.448Z,33.01
2023-05-24T17:58:14.049Z,32.82
2023-05-24T17:59:47.716Z,32.81
2023-05-24T18:01:21.787Z,32.87
2023-05-24T18:02:55.522Z,32.84
2023-05-24T18:04:29.177Z,33.10
2023-05-24T18:06:04.418Z,33.07
2023-05-24T18:07:37.967Z,33.55
2023-05-24T18:09:11.764Z,33.76
2023-05-24T18:10:45.860Z,34.77
2023-05-24T18:12:19.665Z,35.40
2023-05-24T18:13:53.484Z,35.81
2023-05-24T18:15:27.203Z,36.67
2023-05-24T18:17:00.756Z,38.30
2023-05-24T18:18:34.935Z,39.44
2023-05-24T18:20:08.726Z,38.93
2023-05-24T18:21:42.459Z,39.44
2023-05-24T18:23:16.388Z,39.37
2023-05-24T18:24:50.104Z,39.33
2023-05-24T18:26:23.592Z,39.49
2023-05-24T18:27:57.833Z,39.43
2023-05-24T18:29:31.404Z,39.68
2023-05-24T18:31:08.833Z,40.33
2023-05-24T18:32:55.948Z,40.72
2023-05-24T18:34:36.210Z,41.94
2023-05-24T18:36:10.008Z,43.03
2023-05-24T18:37:44.001Z,43.45
2023-05-24T18:39:17.712Z,44.21
2023-05-24T18:40:51.516Z,44.91
2023-05-24T18:42:24.809Z,44.82
2023-05-24T18:43:58.091Z,44.07
2023-05-24T18:45:31.542Z,43.24
2023-05-24T18:47:06.109Z,43.02
2023-05-24T18:48:41.552Z,43.84
2023-05-24T18:50:15.019Z,45.53
2023-05-24T18:51:48.758Z,46.90
2023-05-24T18:53:22.388Z,48.38
2023-05-24T18:54:58.399Z,48.33
2023-05-24T18:56:31.909Z,48.87
2023-05-24T18:58:07.069Z,49.15
2023-05-24T18:59:40.647Z,48.46
2023-05-24T19:01:14.902Z,47.19
2023-05-24T19:02:49.197Z,48.81
2023-05-24T19:04:22.745Z,47.50
2023-05-24T19:05:56.517Z,46.97
2023-05-24T19:07:29.906Z,46.21
2023-05-24T19:09:03.150Z,46.32
2023-05-24T19:10:36.931Z,45.35
2023-05-24T19:12:15.274Z,45.22
2023-05-24T19:13:48.655Z,44.93
2023-05-24T19:15:22.373Z,45.28
2023-05-24T19:16:56.070Z,45.18
2023-05-24T19:18:29.734Z,44.22
2023-05-24T19:20:03.680Z,44.36
2023-05-24T19:21:41.828Z,44.93
2023-05-24T19:23:15.437Z,44.99
2023-05-24T19:24:49.371Z,44.39
2023-05-24T19:26:22.708Z,45.41
2023-05-24T19:27:59.998Z,45.45
2023-05-24T19:29:35.079Z,45.76
2023-05-24T19:31:08.966Z,45.13
2023-05-24T19:32:45.382Z,45.27
2023-05-24T19:34:19.816Z,44.74
2023-05-24T19:35:56.146Z,44.46
2023-05-24T19:37:30.168Z,45.47
2023-05-24T19:39:03.400Z,45.34
2023-05-24T19:40:36.834Z,45.51
2023-05-24T19:42:12.140Z,46.07
2023-05-24T19:43:46.027Z,47.17
2023-05-24T19:45:19.391Z,47.59
2023-05-24T19:46:53.013Z,47.67
2023-05-24T19:48:26.605Z,47.95
2023-05-24T19:50:00.653Z,48.09
2023-05-24T19:51:35.186Z,48.55
2023-05-24T19:53:08.330Z,48.39
2023-05-24T19:54:42.129Z,49.30
2023-05-24T19:56:16.327Z,49.14
2023-05-24T19:57:50.046Z,49.71
2023-05-24T19:59:23.993Z,49.93
2023-05-24T20:00:57.609Z,50.14
2023-05-24T20:02:32.877Z,51.01
2023-05-24T20:04:07.773Z,50.22
2023-05-24T20:05:41.603Z,51.59
2023-05-24T20:07:15.326Z,52.61
2023-05-24T20:08:49.825Z,53.57
2023-05-24T20:10:23.808Z,53.05
2023-05-24T20:11:57.757Z,54.22
2023-05-24T20:13:30.947Z,54.00
2023-05-24T20:15:04.954Z,53.74
2023-05-24T20:16:38.799Z,54.27
2023-05-24T20:18:12.221Z,54.31
2023-05-24T20:19:45.685Z,55.00
2023-05-24T20:21:19.767Z,54.08
2023-05-24T20:22:53.521Z,53.13
2023-05-24T20:24:27.223Z,53.20
2023-05-24T20:26:01.350Z,53.19
2023-05-24T20:27:35.625Z,54.52
2023-05-24T20:29:09.277Z,55.32
2023-05-24T20:30:46.067Z,57.16
2023-05-24T20:32:22.891Z,57.55
2023-05-24T20:33:57.043Z,58.45
2023-05-24T20:35:31.136Z,59.53
2023-05-24T20:37:05.212Z,61.09
2023-05-24T20:38:40.106Z,62.83
2023-05-24T20:40:21.394Z,63.27
2023-05-24T20:41:55.794Z,64.39
2023-05-24T20:43:30.324Z,64.35
2023-05-24T20:45:04.010Z,65.31
2023-05-24T20:46:42.051Z,64.43
2023-05-24T20:48:15.650Z,63.92
2023-05-24T20:49:49.631Z,64.41
2023-05-24T20:51:23.624Z,63.83
2023-05-24T20:52:57.422Z,64.37
2023-05-24T20:54:31.629Z,63.77
2023-05-24T20:56:05.174Z,62.49
2023-05-24T20:57:38.893Z,62.51
2023-05-24T20:59:12.727Z,64.09
2023-05-24T21:00:46.450Z,64.79
2023-05-24T21:02:20.622Z,62.61
2023-05-24T21:03:54.100Z,64.64
2023-05-24T21:05:27.703Z,62.30
2023-05-24T21:07:01.540Z,61.48
2023-05-24T21:08:35.135Z,63.43
2023-05-24T21:10:12.439Z,64.84
2023-05-24T21:11:46.517Z,67.04
2023-05-24T21:13:20.808Z,70.36
2023-05-24T21:14:54.384Z,72.66
2023-05-24T21:16:28.708Z,72.58
2023-05-24T21:18:08.099Z,72.43
2023-05-24T21:19:42.159Z,72.76
2023-05-24T21:21:15.686Z,70.83
2023-05-24T21:22:49.451Z,69.50
2023-05-24T21:24:23.538Z,68.96
2023-05-24T21:25:57.146Z,67.90
2023-05-24T21:27:30.589Z,68.52
2023-05-24T21:29:06.836Z,68.40
2023-05-24T21:30:40.433Z,67.98
2023-05-24T21:32:14.483Z,68.74
2023-05-24T21:33:48.057Z,67.65
2023-05-24T21:35:21.751Z,69.19
2023-05-24T21:36:55.746Z,66.94
2023-05-24T21:38:29.785Z,66.65
2023-05-24T21:40:03.459Z,67.86
2023-05-24T21:41:39.857Z,67.96
2023-05-24T21:43:13.342Z,68.15
2023-05-24T21:44:50.114Z,68.98
2023-05-24T21:46:23.892Z,68.81
2023-05-24T21:47:59.791Z,67.70
2023-05-24T21:49:33.681Z,68.51
2023-05-24T21:51:07.488Z,70.64
2023-05-24T21:52:40.983Z,72.42
2023-05-24T21:54:14.396Z,74.28